Home   Weather   Bulgaria   Plovdiv   Past weeks
Flag for Bulgaria

Past Weather in Plovdiv, Bulgaria — Yesterday and Last 2 Weeks

Currently: 39 °F. Chilly. (Weather station: Plovdiv Airport, Bulgaria). See more current weather

Past Weather in Plovdiv — Graph

°F

Plovdiv Temperature Yesterday

Maximum temperature yesterday: 63 °F (at 12:00 am)
Minimum temperature yesterday: 50 °F (at 10:30 pm)
Average temperature yesterday: 57 °F

High & Low Weather Summary for the Past Weeks

 TemperatureHumidityPressure
High73 °F (Oct 23, 4:30 pm)100% (Oct 10, 7:30 pm)30.48 "Hg (Oct 10, 7:30 pm)
Low39 °F (Oct 21, 5:30 am)35% (Oct 19, 5:00 pm)29.74 "Hg (Oct 12, 2:00 pm)
Average54 °F79%30.11 "Hg
* Reported Oct 10 5:00 am — Oct 25 5:30 am, Plovdiv. Weather by CustomWeather, © 2021

Note: Actual official high and low records may vary slightly from our data, if they occured in-between our weather recording intervals... More about our weather records

Plovdiv Weather History for the Previous 24 Hours

Scroll right to see more
 ConditionsComfort  
Time TempWeatherWind HumidityBarometerVisibility
5:30 am
Mon, Oct 25
39 °FChilly.3 mph93%30.48 "HgN/A
5:00 am39 °FChilly.No wind93%30.48 "HgN/A
4:30 am39 °FChilly.3 mph87%30.48 "HgN/A
4:00 am41 °FQuite cool.6 mph87%30.48 "HgN/A
3:30 am43 °FQuite cool.7 mph81%30.48 "HgN/A
3:00 am43 °FPassing clouds.6 mph81%30.48 "HgN/A
2:30 am45 °FPassing clouds.6 mph81%30.48 "HgN/A
2:00 am45 °FPassing clouds.6 mph81%30.48 "HgN/A
1:30 am46 °FPassing clouds.6 mph76%30.48 "HgN/A
1:00 am46 °FPassing clouds.8 mph76%30.48 "HgN/A
12:30 am50 °FPassing clouds.8 mph62%30.48 "HgN/A
12:00 am50 °FPassing clouds.10 mph62%30.48 "HgN/A
11:00 pm
Sun, Oct 24
52 °FPassing clouds.12 mph58%30.48 "HgN/A
10:30 pm50 °FPassing clouds.10 mph62%30.45 "HgN/A
10:00 pm52 °FPassing clouds.10 mph58%30.45 "HgN/A
9:30 pm52 °FOvercast.10 mph62%30.45 "HgN/A
9:00 pm52 °FPassing clouds.10 mph62%30.45 "HgN/A
8:30 pm54 °FOvercast.9 mph58%30.42 "HgN/A
8:00 pm52 °FPassing clouds.9 mph62%30.42 "HgN/A
7:30 pm54 °FPassing clouds.9 mph58%30.42 "HgN/A
7:00 pm54 °FPassing clouds.10 mph58%30.42 "HgN/A
6:30 pm55 °FPassing clouds.10 mph55%30.39 "HgN/A
6:00 pm57 °FOvercast.12 mph51%30.39 "HgN/A
5:30 pm57 °FOvercast.9 mph51%30.39 "HgN/A
5:00 pm59 °FOvercast.10 mph45%30.39 "HgN/A
4:30 pm59 °FOvercast.9 mph48%30.39 "HgN/A
4:00 pm61 °FBroken clouds.9 mph45%30.39 "HgN/A
3:30 pm61 °FScattered clouds.10 mph48%30.36 "HgN/A
3:00 pm59 °FScattered clouds.10 mph51%30.36 "HgN/A
2:30 pm61 °FPassing clouds.9 mph48%30.36 "HgN/A
2:00 pm61 °FRefreshingly cool.7 mph42%30.36 "HgN/A
1:30 pm61 °FRefreshingly cool.9 mph39%30.36 "HgN/A
1:00 pm59 °FPassing clouds.10 mph42%30.36 "HgN/A
12:30 pm59 °FPassing clouds.13 mph45%30.36 "HgN/A
12:00 pm57 °FBroken clouds.15 mph48%30.36 "HgN/A
11:30 am57 °FBroken clouds.21 mph48%30.36 "HgN/A
11:00 am57 °FPartly sunny.21 mph48%30.33 "HgN/A
10:30 am55 °FPartly sunny.17 mph47%30.33 "HgN/A
10:00 am55 °FMostly cloudy.17 mph47%30.33 "HgN/A
9:30 am55 °FOvercast.21 mph47%30.33 "HgN/A
9:00 am55 °FMore clouds than sun.22 mph51%30.30 "HgN/A
8:30 am54 °FMostly cloudy.25 mph58%30.30 "HgN/A
8:00 am54 °FMostly cloudy.20 mph63%30.27 "HgN/A
7:30 am55 °FMostly cloudy.22 mph63%30.27 "HgN/A
7:00 am55 °FMostly cloudy.18 mph63%30.27 "HgN/A
6:30 am55 °FMostly cloudy.22 mph63%30.24 "HgN/A
6:00 am55 °FSprinkles. Mostly cloudy.21 mph67%30.24 "HgN/A
Weather by CustomWeather, © 2021

See weather overview